Sindal Flyveplads, Denmark
Current Conditions -  °F | °C
As of 6:50 PM on Sunday 21 Dec 2014 (Local Time) from EKYT Reporting Station
Light Rain Light Rain  
Wind Chill: 37°   Ceiling: 600
Heat Index: 45°   Visibility: 1.8mi
Dew Point: 43°   Wind: 18mph
Humidity: 93%   Direction: 240°WSW
Pressure: 29.59"   Gusts: NA
Location:  57.5°N, 10.22°E
Report Text: EKYT 211750Z 24016KT 3000 -DZRA BR SCT005 BKN006 OVC00907/06 Q1002
Loading
Personal Weather Stations






























Interactive Weather Map New forecast layout! Learn more

10-Day Weather Forecast

Advertisements
Track Severe Weather on mobile